createdAt,value
2023-05-22T00:01:54.909Z,2.88
2023-05-22T00:04:58.026Z,3.10
2023-05-22T00:07:59.978Z,2.90
2023-05-22T00:11:01.724Z,2.60
2023-05-22T00:14:03.458Z,2.90
2023-05-22T00:17:05.383Z,2.80
2023-05-22T00:20:09.522Z,3.42
2023-05-22T00:23:12.619Z,2.90
2023-05-22T00:26:16.555Z,2.63
2023-05-22T00:29:18.347Z,2.63
2023-05-22T00:32:20.070Z,3.10
2023-05-22T00:35:23.515Z,2.72
2023-05-22T00:38:29.779Z,3.33
2023-05-22T00:41:31.543Z,3.22
2023-05-22T00:44:33.255Z,3.00
2023-05-22T00:47:34.929Z,3.35
2023-05-22T00:50:38.513Z,2.85
2023-05-22T00:53:40.630Z,2.95
2023-05-22T00:56:43.004Z,3.03
2023-05-22T00:59:45.056Z,3.35
2023-05-22T01:02:46.912Z,3.20
2023-05-22T01:05:50.128Z,3.20
2023-05-22T01:08:51.829Z,3.30
2023-05-22T01:12:01.227Z,3.83
2023-05-22T01:18:34.997Z,3.08
2023-05-22T01:21:45.693Z,3.40
2023-05-22T01:25:19.462Z,3.50
2023-05-22T01:28:41.821Z,3.35
2023-05-22T01:31:47.397Z,2.90
2023-05-22T01:34:54.128Z,3.20
2023-05-22T01:37:57.725Z,3.70
2023-05-22T01:40:59.874Z,3.30
2023-05-22T01:44:02.448Z,3.35
2023-05-22T01:47:06.118Z,3.13
2023-05-22T01:50:08.575Z,4.20
2023-05-22T01:53:15.186Z,3.30
2023-05-22T01:56:22.956Z,3.78
2023-05-22T01:59:31.052Z,4.55
2023-05-22T02:02:36.144Z,3.67
2023-05-22T02:05:39.705Z,3.83
2023-05-22T02:08:42.863Z,4.10
2023-05-22T02:11:45.226Z,3.70
2023-05-22T02:14:47.560Z,3.50
2023-05-22T02:17:50.631Z,3.80
2023-05-22T02:20:52.288Z,3.50
2023-05-22T02:23:53.935Z,3.70
2023-05-22T02:26:55.963Z,3.47
2023-05-22T02:29:57.624Z,3.63
2023-05-22T02:33:00.703Z,4.20
2023-05-22T02:36:02.964Z,4.55
2023-05-22T02:39:04.858Z,3.90
2023-05-22T02:42:06.825Z,4.10
2023-05-22T02:45:09.761Z,3.85
2023-05-22T02:48:12.857Z,3.60
2023-05-22T02:51:14.539Z,4.05
2023-05-22T02:54:16.519Z,3.72
2023-05-22T02:57:18.219Z,3.90
2023-05-22T03:00:20.615Z,3.78
2023-05-22T03:03:24.118Z,3.60
2023-05-22T03:06:25.851Z,3.38
2023-05-22T03:09:27.811Z,3.85
2023-05-22T03:12:29.968Z,3.22
2023-05-22T03:15:31.940Z,3.60
2023-05-22T03:18:35.285Z,3.97
2023-05-22T03:21:37.488Z,4.20
2023-05-22T03:24:39.157Z,4.78
2023-05-22T03:27:40.847Z,4.22
2023-05-22T03:30:42.639Z,3.92
2023-05-22T03:33:45.804Z,4.00
2023-05-22T03:36:47.504Z,3.97
2023-05-22T03:39:51.939Z,4.43
2023-05-22T03:42:53.854Z,3.83
2023-05-22T03:45:55.593Z,3.78
2023-05-22T03:48:58.741Z,3.67
2023-05-22T03:52:00.418Z,3.95
2023-05-22T03:55:02.343Z,3.97
2023-05-22T03:58:03.995Z,3.80
2023-05-22T04:01:05.741Z,3.85
2023-05-22T04:04:08.771Z,4.20
2023-05-22T04:07:10.436Z,3.70
2023-05-22T04:10:12.333Z,3.95
2023-05-22T04:13:15.733Z,3.60
2023-05-22T04:19:20.692Z,3.47
2023-05-22T04:22:22.549Z,3.63
2023-05-22T04:25:24.247Z,4.72
2023-05-22T04:28:25.928Z,3.70
2023-05-22T04:31:27.671Z,3.60
2023-05-22T04:34:30.731Z,3.78
2023-05-22T04:37:32.417Z,3.83
2023-05-22T04:40:34.091Z,4.95
2023-05-22T04:43:35.760Z,3.90
2023-05-22T04:46:37.744Z,4.63
2023-05-22T04:49:40.894Z,5.90
2023-05-22T04:52:42.600Z,4.20
2023-05-22T04:55:44.369Z,4.28
2023-05-22T04:58:47.476Z,3.97
2023-05-22T05:01:49.646Z,4.00
2023-05-22T05:04:52.800Z,4.03
2023-05-22T05:07:54.506Z,3.92
2023-05-22T05:10:56.493Z,3.88
2023-05-22T05:13:58.221Z,4.53
2023-05-22T05:17:00.218Z,4.32
2023-05-22T05:20:04.456Z,4.93
2023-05-22T05:23:06.117Z,4.22
2023-05-22T05:26:07.811Z,4.35
2023-05-22T05:29:09.410Z,4.75
2023-05-22T05:32:11.142Z,4.72
2023-05-22T05:35:14.639Z,4.25
2023-05-22T05:38:16.325Z,4.38
2023-05-22T05:41:18.249Z,4.15
2023-05-22T05:44:20.173Z,4.45
2023-05-22T05:47:22.030Z,3.55
2023-05-22T05:50:25.006Z,4.53
2023-05-22T05:53:26.675Z,3.67
2023-05-22T05:56:28.670Z,3.58
2023-05-22T05:59:30.612Z,3.83
2023-05-22T06:02:32.347Z,3.60
2023-05-22T06:05:35.521Z,4.10
2023-05-22T06:08:37.683Z,3.33
2023-05-22T06:11:39.340Z,3.38
2023-05-22T06:14:41.044Z,2.78
2023-05-22T06:17:42.749Z,2.83
2023-05-22T06:20:45.767Z,3.20
2023-05-22T06:23:47.531Z,2.72
2023-05-22T06:26:49.201Z,2.65
2023-05-22T06:29:51.073Z,3.03
2023-05-22T06:32:52.864Z,3.00
2023-05-22T06:35:56.052Z,3.20
2023-05-22T06:38:58.148Z,2.60
2023-05-22T06:41:59.807Z,3.00
2023-05-22T06:45:01.524Z,3.25
2023-05-22T06:48:03.598Z,3.38
2023-05-22T06:51:06.779Z,2.83
2023-05-22T06:54:08.622Z,3.28
2023-05-22T06:57:10.371Z,3.33
2023-05-22T07:00:13.182Z,3.40
2023-05-22T07:03:14.913Z,4.68
2023-05-22T07:06:18.447Z,3.10
2023-05-22T07:09:20.443Z,4.45
2023-05-22T07:12:22.436Z,3.42
2023-05-22T07:15:24.251Z,3.78
2023-05-22T07:18:25.991Z,3.25
2023-05-22T07:21:29.157Z,3.13
2023-05-22T07:24:31.241Z,3.53
2023-05-22T07:27:33.071Z,3.65
2023-05-22T07:30:36.098Z,2.95
2023-05-22T07:33:37.785Z,3.25
2023-05-22T07:36:40.958Z,3.53
2023-05-22T07:45:46.012Z,3.00
2023-05-22T07:48:48.257Z,2.83
2023-05-22T07:51:51.332Z,3.17
2023-05-22T07:54:58.974Z,3.40
2023-05-22T07:58:00.784Z,3.25
2023-05-22T08:01:02.584Z,3.00
2023-05-22T08:04:04.977Z,3.45
2023-05-22T08:07:08.682Z,3.28
2023-05-22T08:10:15.760Z,2.95
2023-05-22T08:13:18.330Z,3.40
2023-05-22T08:16:20.327Z,3.22
2023-05-22T08:19:22.288Z,3.30
2023-05-22T08:22:25.531Z,3.03
2023-05-22T08:28:29.220Z,3.30
2023-05-22T08:31:31.065Z,3.53
2023-05-22T08:34:32.989Z,3.60
2023-05-22T08:37:36.086Z,3.38
2023-05-22T08:43:41.606Z,2.97
2023-05-22T08:46:44.919Z,3.30
2023-05-22T08:49:50.615Z,3.53
2023-05-22T08:52:55.996Z,5.03
2023-05-22T08:55:57.950Z,3.85
2023-05-22T08:59:00.366Z,4.80
2023-05-22T09:02:06.557Z,4.43
2023-05-22T09:05:09.580Z,4.85
2023-05-22T09:08:20.530Z,4.65
2023-05-22T09:11:23.333Z,4.60
2023-05-22T09:14:25.061Z,5.35
2023-05-22T09:17:26.937Z,4.50
2023-05-22T09:20:28.663Z,4.90
2023-05-22T09:23:32.003Z,4.80
2023-05-22T09:26:34.592Z,4.28
2023-05-22T09:29:47.831Z,4.50
2023-05-22T09:32:49.623Z,4.45
2023-05-22T09:35:52.819Z,4.07
2023-05-22T09:38:55.834Z,5.07
2023-05-22T09:42:01.607Z,5.10
2023-05-22T09:45:04.120Z,4.80
2023-05-22T09:48:07.112Z,4.28
2023-05-22T09:51:10.957Z,5.45
2023-05-22T09:54:15.578Z,4.72
2023-05-22T09:57:19.568Z,4.57
2023-05-22T10:00:22.994Z,3.70
2023-05-22T10:03:27.721Z,3.85
2023-05-22T10:06:31.523Z,3.90
2023-05-22T10:09:38.279Z,3.45
2023-05-22T10:12:43.287Z,3.38
2023-05-22T10:15:47.426Z,3.80
2023-05-22T10:18:49.283Z,3.50
2023-05-22T10:21:51.520Z,3.40
2023-05-22T10:24:55.323Z,3.55
2023-05-22T10:27:58.135Z,3.20
2023-05-22T10:31:04.760Z,3.70
2023-05-22T10:34:11.230Z,3.90
2023-05-22T10:37:28.607Z,3.42
2023-05-22T10:40:43.003Z,3.35
2023-05-22T10:43:49.064Z,3.50
2023-05-22T10:46:50.802Z,3.70
2023-05-22T10:50:03.606Z,3.30
2023-05-22T10:53:23.503Z,3.10
2023-05-22T10:56:34.802Z,3.08
2023-05-22T10:59:36.783Z,3.33
2023-05-22T11:02:40.553Z,3.35
2023-05-22T11:05:42.278Z,2.90
2023-05-22T11:08:43.935Z,2.95
2023-05-22T11:11:47.566Z,3.05
2023-05-22T11:14:51.320Z,2.83
2023-05-22T11:17:55.161Z,3.15
2023-05-22T11:20:59.338Z,3.38
2023-05-22T11:24:01.187Z,3.42
2023-05-22T11:27:06.545Z,2.60
2023-05-22T11:30:10.102Z,2.80
2023-05-22T11:33:12.134Z,2.88
2023-05-22T11:36:15.377Z,3.20
2023-05-22T11:39:17.036Z,3.63
2023-05-22T11:42:20.322Z,3.17
2023-05-22T11:45:22.360Z,3.30
2023-05-22T11:48:24.189Z,3.35
2023-05-22T11:51:27.238Z,3.15
2023-05-22T11:54:32.045Z,3.35
2023-05-22T11:57:36.971Z,3.20
2023-05-22T12:00:38.825Z,3.70
2023-05-22T12:03:40.822Z,3.10
2023-05-22T12:06:42.675Z,3.50
2023-05-22T12:09:44.552Z,3.25
2023-05-22T12:12:47.627Z,3.42
2023-05-22T12:15:49.651Z,3.30
2023-05-22T12:18:52.843Z,3.47
2023-05-22T12:21:54.657Z,3.35
2023-05-22T12:24:56.336Z,3.05
2023-05-22T12:27:59.917Z,3.20
2023-05-22T12:31:01.827Z,3.58
2023-05-22T12:34:06.758Z,3.15
2023-05-22T12:37:18.264Z,3.20
2023-05-22T12:40:19.948Z,2.92
2023-05-22T12:43:24.525Z,3.75
2023-05-22T12:46:26.320Z,3.15
2023-05-22T12:49:28.496Z,3.47
2023-05-22T12:52:30.402Z,3.47
2023-05-22T12:55:32.991Z,3.08
2023-05-22T12:58:36.051Z,3.63
2023-05-22T13:04:39.388Z,3.10
2023-05-22T13:07:41.548Z,3.17
2023-05-22T13:10:43.687Z,2.90
2023-05-22T13:13:46.811Z,2.97
2023-05-22T13:16:48.770Z,3.33
2023-05-22T13:19:50.524Z,3.08
2023-05-22T13:22:52.459Z,3.63
2023-05-22T13:25:54.279Z,3.70
2023-05-22T13:28:57.334Z,3.63
2023-05-22T13:31:59.301Z,3.80
2023-05-22T13:35:01.063Z,3.70
2023-05-22T13:38:03.115Z,3.75
2023-05-22T13:41:05.314Z,3.38
2023-05-22T13:44:08.417Z,3.22
2023-05-22T13:47:10.264Z,3.30
2023-05-22T13:50:12.082Z,3.80
2023-05-22T13:53:14.150Z,3.03
2023-05-22T13:56:15.957Z,3.05
2023-05-22T13:59:19.280Z,4.07
2023-05-22T14:02:21.526Z,3.30
2023-05-22T14:05:24.170Z,3.60
2023-05-22T14:08:26.751Z,3.28
2023-05-22T14:11:28.513Z,3.38
2023-05-22T14:14:31.571Z,3.22
2023-05-22T14:17:33.306Z,3.50
2023-05-22T14:20:35.350Z,3.30
2023-05-22T14:23:37.262Z,3.15
2023-05-22T14:26:39.193Z,3.50
2023-05-22T14:29:42.671Z,3.83
2023-05-22T14:32:44.474Z,3.33
2023-05-22T14:35:46.314Z,3.53
2023-05-22T14:38:47.985Z,3.38
2023-05-22T14:41:49.735Z,3.28
2023-05-22T14:44:52.740Z,3.42
2023-05-22T14:47:55.116Z,3.47
2023-05-22T14:50:56.923Z,3.20
2023-05-22T14:53:58.629Z,3.72
2023-05-22T14:57:00.351Z,3.25
2023-05-22T15:00:04.185Z,3.78
2023-05-22T15:03:06.159Z,3.35
2023-05-22T15:06:08.111Z,3.15
2023-05-22T15:09:09.752Z,3.45
2023-05-22T15:12:11.412Z,3.78
2023-05-22T15:15:14.715Z,3.72
2023-05-22T15:18:16.541Z,3.58
2023-05-22T15:21:18.737Z,3.45
2023-05-22T15:24:20.664Z,3.70
2023-05-22T15:27:22.453Z,3.92
2023-05-22T15:30:25.623Z,3.30
2023-05-22T15:33:27.560Z,3.15
2023-05-22T15:36:29.526Z,3.67
2023-05-22T15:39:31.345Z,3.40
2023-05-22T15:42:33.264Z,3.15
2023-05-22T15:45:37.036Z,3.38
2023-05-22T15:48:38.757Z,3.63
2023-05-22T15:51:40.585Z,3.28
2023-05-22T15:54:42.301Z,3.58
2023-05-22T15:57:44.015Z,3.53
2023-05-22T16:00:47.032Z,4.03
2023-05-22T16:03:49.160Z,3.67
2023-05-22T16:06:51.026Z,3.75
2023-05-22T16:09:52.760Z,3.33
2023-05-22T16:12:54.468Z,4.13
2023-05-22T16:15:57.600Z,3.40
2023-05-22T16:18:59.762Z,3.30
2023-05-22T16:22:01.649Z,3.60
2023-05-22T16:25:03.594Z,3.35
2023-05-22T16:28:05.285Z,3.40
2023-05-22T16:31:08.402Z,3.60
2023-05-22T16:34:10.110Z,3.25
2023-05-22T16:37:11.803Z,3.72
2023-05-22T16:40:13.602Z,3.35
2023-05-22T16:43:15.438Z,3.72
2023-05-22T16:46:18.718Z,3.90
2023-05-22T16:49:20.378Z,3.33
2023-05-22T16:52:22.219Z,3.20
2023-05-22T16:55:24.046Z,4.18
2023-05-22T16:58:25.906Z,3.63
2023-05-22T17:01:29.308Z,4.20
2023-05-22T17:04:31.091Z,3.83
2023-05-22T17:07:32.816Z,3.72
2023-05-22T17:10:34.504Z,4.00
2023-05-22T17:13:36.449Z,3.88
2023-05-22T17:16:39.585Z,4.10
2023-05-22T17:19:41.356Z,4.47
2023-05-22T17:22:43.292Z,4.03
2023-05-22T17:25:45.630Z,4.50
2023-05-22T17:28:47.519Z,4.70
2023-05-22T17:31:50.999Z,4.03
2023-05-22T17:34:52.646Z,4.85
2023-05-22T17:37:54.585Z,4.68
2023-05-22T17:40:56.308Z,4.03
2023-05-22T17:44:00.435Z,4.57
2023-05-22T17:47:04.550Z,4.05
2023-05-22T17:50:07.444Z,3.60
2023-05-22T17:53:09.148Z,3.42
2023-05-22T17:56:11.154Z,3.47
2023-05-22T17:59:13.053Z,3.00
2023-05-22T18:02:16.224Z,3.40
2023-05-22T18:08:22.822Z,3.35
2023-05-22T18:11:24.672Z,3.58
2023-05-22T18:14:26.341Z,3.90
2023-05-22T18:17:29.913Z,3.45
2023-05-22T18:20:31.703Z,3.75
2023-05-22T18:23:33.411Z,3.90
2023-05-22T18:26:35.194Z,3.83
2023-05-22T18:29:36.963Z,4.25
2023-05-22T18:32:40.349Z,3.90
2023-05-22T18:35:42.189Z,3.58
2023-05-22T18:38:43.882Z,4.07
2023-05-22T18:41:45.697Z,3.85
2023-05-22T18:44:48.982Z,4.15
2023-05-22T18:47:52.402Z,3.10
2023-05-22T18:56:58.031Z,4.10
2023-05-22T18:59:59.763Z,4.78
2023-05-22T19:03:03.015Z,4.55
2023-05-22T19:06:05.175Z,4.63
2023-05-22T19:09:06.959Z,4.22
2023-05-22T19:12:09.009Z,4.45
2023-05-22T19:15:11.498Z,3.83
2023-05-22T19:18:14.509Z,4.53
2023-05-22T19:21:16.286Z,4.15
2023-05-22T19:24:18.084Z,4.82
2023-05-22T19:27:20.101Z,5.80
2023-05-22T19:30:21.819Z,4.53
2023-05-22T19:33:24.964Z,4.30
2023-05-22T19:39:28.695Z,4.28
2023-05-22T19:42:30.515Z,3.92
2023-05-22T19:45:32.377Z,4.25
2023-05-22T19:48:35.928Z,4.15
2023-05-22T19:51:37.617Z,4.57
2023-05-22T19:54:39.442Z,4.47
2023-05-22T19:57:41.147Z,4.43
2023-05-22T20:00:43.592Z,4.38
2023-05-22T20:03:46.865Z,4.43
2023-05-22T20:09:50.284Z,3.92
2023-05-22T20:12:52.176Z,4.72
2023-05-22T20:15:53.888Z,4.25
2023-05-22T20:18:57.168Z,4.70
2023-05-22T20:28:03.436Z,4.82
2023-05-22T20:34:08.111Z,4.70
2023-05-22T20:37:09.852Z,5.22
2023-05-22T20:40:12.948Z,5.05
2023-05-22T20:43:14.894Z,5.05
2023-05-22T20:46:16.745Z,4.88
2023-05-22T20:49:19.869Z,4.88
2023-05-22T20:52:21.561Z,4.50
2023-05-22T20:55:23.334Z,4.75
2023-05-22T20:58:25.039Z,5.45
2023-05-22T21:01:26.751Z,4.95
2023-05-22T21:04:30.004Z,6.00
2023-05-22T23:13:34.069Z,5.47
2023-05-22T23:16:35.930Z,5.63
2023-05-22T23:19:38.242Z,5.80
2023-05-22T23:22:39.958Z,6.07
2023-05-22T23:25:41.890Z,5.78
2023-05-22T23:28:45.149Z,5.80
2023-05-22T23:31:46.959Z,6.05
2023-05-22T23:34:48.723Z,6.13
2023-05-22T23:37:50.480Z,6.22
2023-05-22T23:40:52.181Z,6.35
2023-05-22T23:43:55.221Z,5.88
2023-05-22T23:46:57.353Z,5.60
2023-05-22T23:49:59.073Z,5.93
2023-05-22T23:53:00.804Z,6.25
2023-05-22T23:56:02.550Z,6.53
2023-05-22T23:59:05.951Z,5.55
